createdAt,value
2023-04-02T00:00:34.677Z,74.36
2023-04-02T00:06:40.324Z,75.00
2023-04-02T00:12:15.463Z,74.62
2023-04-02T00:17:36.175Z,74.88
2023-04-02T00:22:57.020Z,75.13
2023-04-02T00:28:22.106Z,75.42
2023-04-02T00:33:42.786Z,76.21
2023-04-02T00:39:08.444Z,75.52
2023-04-02T00:44:33.031Z,75.66
2023-04-02T00:49:59.407Z,76.01
2023-04-02T00:55:37.423Z,76.10
2023-04-02T01:00:59.027Z,76.02
2023-04-02T01:06:19.725Z,76.31
2023-04-02T01:11:52.685Z,76.56
2023-04-02T01:17:32.664Z,76.87
2023-04-02T01:23:02.578Z,76.98
2023-04-02T01:28:46.152Z,76.89
2023-04-02T01:34:12.940Z,76.76
2023-04-02T01:39:52.077Z,76.88
2023-04-02T01:45:15.149Z,76.97
2023-04-02T01:50:39.894Z,77.49
2023-04-02T01:56:01.820Z,77.14
2023-04-02T02:01:24.061Z,77.52
2023-04-02T02:06:47.172Z,77.93
2023-04-02T02:12:07.774Z,77.56
2023-04-02T02:17:31.113Z,77.65
2023-04-02T02:22:51.980Z,77.79
2023-04-02T02:28:26.148Z,78.18
2023-04-02T02:33:50.381Z,78.10
2023-04-02T02:39:25.992Z,78.14
2023-04-02T02:44:47.976Z,78.69
2023-04-02T02:50:13.985Z,78.46
2023-04-02T02:55:36.923Z,78.63
2023-04-02T03:01:09.619Z,78.97
2023-04-02T03:06:33.291Z,78.89
2023-04-02T03:12:02.272Z,78.78
2023-04-02T03:17:37.137Z,78.92
2023-04-02T03:23:21.717Z,78.95
2023-04-02T03:28:48.048Z,79.09
2023-04-02T03:34:18.002Z,78.88
2023-04-02T03:39:39.846Z,79.43
2023-04-02T03:45:10.742Z,79.22
2023-04-02T03:50:36.191Z,79.54
2023-04-02T03:55:56.881Z,80.03
2023-04-02T04:01:31.840Z,79.41
2023-04-02T04:06:53.041Z,80.05
2023-04-02T04:12:22.061Z,79.53
2023-04-02T04:18:04.364Z,79.93
2023-04-02T04:23:37.578Z,80.43
2023-04-02T04:29:17.046Z,79.78
2023-04-02T04:34:46.737Z,79.48
2023-04-02T04:40:21.274Z,79.73
2023-04-02T04:45:51.913Z,79.41
2023-04-02T04:51:28.055Z,79.69
2023-04-02T04:56:51.931Z,79.01
2023-04-02T05:02:29.750Z,79.05
2023-04-02T05:07:53.387Z,79.41
2023-04-02T05:13:29.944Z,79.33
2023-04-02T05:19:11.297Z,79.35
2023-04-02T05:24:54.563Z,78.60
2023-04-02T05:30:28.665Z,78.42
2023-04-02T05:36:12.443Z,78.61
2023-04-02T05:41:46.153Z,78.33
2023-04-02T05:47:20.804Z,78.38
2023-04-02T05:53:10.084Z,78.49
2023-04-02T05:58:44.735Z,77.85
2023-04-02T06:04:50.828Z,78.28
2023-04-02T06:11:00.537Z,77.35
2023-04-02T06:16:25.522Z,77.65
2023-04-02T06:21:47.226Z,77.77
2023-04-02T06:34:01.093Z,76.69
2023-04-02T06:47:00.420Z,76.02
2023-04-02T06:52:32.356Z,76.20
2023-04-02T06:57:55.937Z,75.66
2023-04-02T07:03:26.074Z,75.55
2023-04-02T07:08:49.666Z,75.79
2023-04-02T07:14:14.548Z,75.98
2023-04-02T07:19:35.769Z,74.85
2023-04-02T07:24:57.094Z,73.84
2023-04-02T07:30:18.528Z,73.70
2023-04-02T07:35:40.620Z,72.92
2023-04-02T07:41:06.387Z,72.82
2023-04-02T07:47:41.799Z,71.71
2023-04-02T07:53:04.171Z,71.90
2023-04-02T08:30:58.293Z,66.21
2023-04-02T08:42:39.721Z,62.58
2023-04-02T08:48:03.614Z,61.24
2023-04-02T08:53:25.867Z,56.51
2023-04-02T08:58:50.864Z,58.22
2023-04-02T09:04:17.027Z,53.00
2023-04-02T09:09:38.478Z,53.17
2023-04-02T09:15:07.375Z,53.59
2023-04-02T09:33:09.867Z,49.80
2023-04-02T10:34:56.482Z,52.06
2023-04-02T11:11:45.735Z,52.84
2023-04-02T11:17:06.606Z,53.23
2023-04-02T11:35:46.205Z,54.00
2023-04-02T11:41:08.822Z,53.76
2023-04-02T11:46:30.812Z,53.46
2023-04-02T11:52:02.177Z,53.91
2023-04-02T11:57:37.942Z,53.98
2023-04-02T12:03:37.294Z,54.49
2023-04-02T12:40:07.863Z,53.76
2023-04-02T12:45:30.852Z,53.62
2023-04-02T13:16:17.417Z,53.35
2023-04-02T13:21:38.972Z,53.48
2023-04-02T13:27:03.722Z,53.69
2023-04-02T13:32:25.312Z,53.77
2023-04-02T13:37:46.301Z,53.44
2023-04-02T13:43:08.022Z,54.09
2023-04-02T13:48:29.193Z,54.14
2023-04-02T13:53:52.610Z,54.09
2023-04-02T13:59:14.103Z,54.26
2023-04-02T14:04:39.405Z,54.16
2023-04-02T14:10:15.953Z,55.20
2023-04-02T14:16:32.036Z,55.39
2023-04-02T14:21:59.272Z,55.32
2023-04-02T14:27:51.476Z,55.04
2023-04-02T14:33:32.718Z,55.83
2023-04-02T14:39:09.212Z,55.55
2023-04-02T15:09:44.331Z,56.57
2023-04-02T15:40:43.457Z,57.18
2023-04-02T15:46:32.000Z,57.22
2023-04-02T15:52:12.426Z,57.74
2023-04-02T15:57:46.569Z,57.08
2023-04-02T16:04:34.278Z,57.18
2023-04-02T16:10:30.239Z,57.44
2023-04-02T16:16:11.556Z,57.51
2023-04-02T16:21:43.322Z,57.19
2023-04-02T16:27:23.129Z,57.21
2023-04-02T16:32:56.938Z,57.43
2023-04-02T16:38:44.968Z,57.05
2023-04-02T16:44:24.357Z,57.53
2023-04-02T16:49:54.236Z,57.06
2023-04-02T16:55:55.080Z,57.39
2023-04-02T17:14:28.523Z,57.86
2023-04-02T17:19:53.479Z,57.74
2023-04-02T17:25:20.681Z,57.62
2023-04-02T17:30:44.120Z,57.98
2023-04-02T17:36:23.822Z,58.16
2023-04-02T17:41:49.810Z,58.02
2023-04-02T17:47:20.817Z,57.77
2023-04-02T17:53:05.188Z,57.83
2023-04-02T17:59:00.095Z,58.82
2023-04-02T18:04:30.252Z,58.59
2023-04-02T18:09:54.722Z,58.16
2023-04-02T18:15:25.120Z,58.48
2023-04-02T18:21:06.932Z,58.63
2023-04-02T18:26:48.105Z,59.38
2023-04-02T18:32:46.205Z,59.30
2023-04-02T18:39:18.202Z,59.57
2023-04-02T18:45:39.950Z,59.71
2023-04-02T18:51:22.545Z,59.70
2023-04-02T18:56:47.062Z,59.51
2023-04-02T19:02:27.759Z,59.86
2023-04-02T19:07:58.654Z,60.16
2023-04-02T19:13:49.129Z,59.83
2023-04-02T19:27:27.483Z,60.45
2023-04-02T19:33:07.879Z,60.36
2023-04-02T19:38:47.569Z,60.30
2023-04-02T19:44:11.772Z,60.62
2023-04-02T19:50:07.104Z,61.07
2023-04-02T19:56:04.065Z,60.77
2023-04-02T20:01:25.772Z,61.35
2023-04-02T20:06:47.021Z,60.85
2023-04-02T20:12:08.223Z,61.35
2023-04-02T20:17:29.262Z,61.32
2023-04-02T20:22:51.079Z,61.52
2023-04-02T20:28:12.122Z,61.67
2023-04-02T20:33:33.531Z,61.24
2023-04-02T20:38:55.162Z,61.50
2023-04-02T20:44:22.768Z,61.84
2023-04-02T20:49:58.450Z,61.97
2023-04-02T20:55:19.910Z,62.05
2023-04-02T21:00:41.743Z,61.90
2023-04-02T21:06:06.908Z,62.00
2023-04-02T21:11:47.529Z,62.08
2023-04-02T21:17:12.864Z,62.37
2023-04-02T21:22:34.519Z,62.37
2023-04-02T21:27:56.067Z,62.48
2023-04-02T21:33:17.613Z,62.40
2023-04-02T21:38:43.360Z,62.95
2023-04-02T21:44:06.805Z,62.69
2023-04-02T21:49:29.947Z,62.86
2023-04-02T21:54:51.161Z,62.78
2023-04-02T22:00:13.569Z,62.83
2023-04-02T22:05:34.962Z,62.58
2023-04-02T22:10:56.859Z,62.74
2023-04-02T22:16:23.388Z,63.01
2023-04-02T22:21:45.188Z,62.83
2023-04-02T22:27:06.521Z,62.70
2023-04-02T22:32:28.132Z,62.63
2023-04-02T22:37:49.609Z,62.60
2023-04-02T22:43:11.059Z,62.81
2023-04-02T22:48:32.964Z,63.16
2023-04-02T22:53:54.621Z,62.66
2023-04-02T22:59:16.295Z,62.44
2023-04-02T23:04:37.450Z,63.14
2023-04-02T23:09:58.946Z,63.01
2023-04-02T23:15:20.559Z,62.79
2023-04-02T23:20:41.764Z,63.00
2023-04-02T23:26:04.349Z,62.76
2023-04-02T23:31:25.656Z,62.82
2023-04-02T23:36:47.134Z,62.78
2023-04-02T23:42:09.630Z,62.86
2023-04-02T23:47:31.549Z,63.21
2023-04-02T23:52:52.815Z,62.99
2023-04-02T23:58:14.355Z,63.52
